Time;durP1;ratioP1;P1;durP2;ratioP2;P2;SDS_P1;SDS_P2;PMS_P1;PMS_P2;Temp;Humidity;BMP_temperature;BMP_pressure;BME280_temperature;BME280_humidity;BME280_pressure;Samples;Min_cycle;Max_cycle;Signal;HPM_P1;HPM_P2
2022/12/05 05:03:10;;;;;;;26.90;14.47;;;4.20;99.90;;;3.59;nan;98108.69;4910807;29;20459;-72
2022/12/05 05:05:40;;;;;;;26.83;14.00;;;4.10;99.90;;;3.67;nan;98113.28;4912748;29;20466;-72
2022/12/05 05:08:18;;;;;;;23.57;12.93;;;4.10;99.90;;;3.76;nan;98120.47;4913144;29;20465;-73
2022/12/05 05:11:04;;;;;;;28.13;14.17;;;4.20;99.90;;;3.64;nan;98105.53;4912338;29;20501;-73
2022/12/05 05:13:31;;;;;;;30.47;14.90;;;4.20;99.90;;;3.73;nan;98112.72;4912276;29;20463;-72
2022/12/05 05:15:58;;;;;;;25.87;14.70;;;4.20;99.90;;;3.81;nan;98119.00;4912469;29;20451;-73
2022/12/05 05:18:27;;;;;;;33.03;14.80;;;4.30;99.90;;;3.87;nan;98126.88;4912228;29;21306;-72
2022/12/05 05:20:54;;;;;;;23.03;13.07;;;4.30;99.90;;;3.89;nan;98126.97;4911517;29;20490;-73
2022/12/05 05:23:21;;;;;;;27.93;15.00;;;4.30;99.90;;;3.91;nan;98123.69;4912280;29;20450;-73
2022/12/05 05:25:53;;;;;;;23.80;13.47;;;4.30;99.90;;;3.89;nan;98126.97;4912431;29;20455;-73
2022/12/05 05:28:21;;;;;;;24.53;12.70;;;4.30;99.90;;;3.94;nan;98131.44;4912961;29;20450;-73
2022/12/05 05:30:48;;;;;;;27.47;13.57;;;4.40;99.90;;;3.98;nan;98137.53;4911633;29;20509;-73
2022/12/05 05:33:15;;;;;;;24.03;13.37;;;4.40;99.90;;;4.04;nan;98148.84;4911769;29;20444;-72
2022/12/05 05:35:43;;;;;;;28.13;12.30;;;4.50;99.90;;;4.10;nan;98158.44;4913010;29;20470;-73
2022/12/05 05:38:10;;;;;;;25.63;13.97;;;4.50;99.90;;;4.13;nan;98161.09;4911932;29;20455;-73
2022/12/05 05:40:37;;;;;;;27.67;13.57;;;4.50;99.90;;;4.09;nan;98154.16;4912497;29;20479;-73
2022/12/05 05:43:04;;;;;;;25.47;14.03;;;4.50;99.90;;;4.04;nan;98150.53;4911532;29;21226;-72
2022/12/05 05:45:31;;;;;;;29.23;13.40;;;4.50;99.90;;;3.93;nan;98149.19;4912309;29;20474;-73
2022/12/05 05:47:58;;;;;;;21.77;12.53;;;4.50;99.90;;;3.87;nan;98139.59;4912396;29;20459;-73
2022/12/05 05:50:25;;;;;;;26.23;14.30;;;4.40;99.90;;;3.86;nan;98150.56;4911781;29;20487;-73
2022/12/05 05:52:53;;;;;;;24.00;12.97;;;4.40;99.90;;;3.87;nan;98149.75;4911374;29;20470;-73
2022/12/05 05:55:24;;;;;;;25.57;14.23;;;4.40;99.90;;;3.89;nan;98160.91;4912355;29;20459;-73
2022/12/05 05:57:53;;;;;;;24.60;13.03;;;4.40;99.90;;;3.85;nan;98159.00;4912438;29;20461;-73
2022/12/05 06:00:20;;;;;;;24.60;13.57;;;4.40;99.90;;;3.90;nan;98159.22;4912343;29;20463;-74
2022/12/05 06:02:47;;;;;;;31.83;14.77;;;4.40;99.90;;;3.99;nan;98164.72;4911616;29;20924;-75
2022/12/05 06:05:14;;;;;;;28.97;13.60;;;4.50;99.90;;;4.04;nan;98166.66;4911781;29;20459;-75
2022/12/05 06:07:41;;;;;;;25.53;13.60;;;4.50;99.90;;;4.04;nan;98170.88;4911757;29;20529;-74
2022/12/05 06:10:10;;;;;;;25.73;13.83;;;4.50;99.90;;;4.10;nan;98176.25;4912193;29;20842;-75
2022/12/05 06:12:37;;;;;;;23.83;13.10;;;4.50;99.90;;;4.15;nan;98177.28;4911375;29;20857;-74
2022/12/05 06:15:06;;;;;;;29.03;14.53;;;4.60;99.90;;;4.16;nan;98189.22;4911837;29;20459;-75
2022/12/05 06:17:33;;;;;;;26.40;15.40;;;4.60;99.90;;;4.10;nan;98186.41;4911680;29;20455;-67
2022/12/05 06:19:59;;;;;;;25.83;14.23;;;4.60;99.90;;;4.06;nan;98189.59;4911709;29;20455;-66
2022/12/05 06:22:29;;;;;;;27.33;13.30;;;4.60;99.90;;;4.02;nan;98191.16;4911007;29;20476;-74
2022/12/05 06:24:56;;;;;;;27.13;14.53;;;4.50;99.90;;;4.01;nan;98173.28;4911777;29;20459;-75
2022/12/05 06:27:24;;;;;;;31.33;14.93;;;4.50;99.90;;;4.04;nan;98175.97;4911610;29;20569;-75
2022/12/05 06:29:53;;;;;;;30.43;14.10;;;4.50;99.90;;;4.06;nan;98169.25;4911513;29;20506;-74
2022/12/05 06:32:20;;;;;;;29.40;15.07;;;4.50;99.90;;;4.10;nan;98168.59;4910790;29;20483;-75
2022/12/05 06:34:46;;;;;;;30.23;15.60;;;4.60;99.90;;;4.12;nan;98169.53;4911617;29;20455;-75
2022/12/05 06:37:14;;;;;;;27.07;14.70;;;4.60;99.90;;;4.16;nan;98176.50;4911715;29;20463;-75
2022/12/05 06:39:41;;;;;;;26.47;14.13;;;4.60;99.90;;;4.17;nan;98178.22;4911299;29;20466;-75
2022/12/05 06:42:08;;;;;;;26.90;14.67;;;4.60;99.90;;;4.19;nan;98181.72;4910630;29;20483;-74
2022/12/05 06:44:36;;;;;;;33.57;14.63;;;4.60;99.90;;;4.17;nan;98180.75;4911421;29;20471;-74
2022/12/05 06:47:03;;;;;;;29.90;15.10;;;4.60;99.90;;;4.16;nan;98183.25;4910886;29;20467;-74
2022/12/05 06:49:31;;;;;;;26.27;14.57;;;4.70;99.90;;;4.09;nan;98182.13;4911325;29;20499;-74
2022/12/05 06:51:58;;;;;;;28.43;14.10;;;4.60;99.90;;;4.05;nan;98187.88;4910448;29;20487;-75
2022/12/05 06:54:26;;;;;;;32.87;15.87;;;4.60;99.90;;;4.04;nan;98189.53;4910968;29;21030;-76
2022/12/05 06:56:53;;;;;;;24.20;15.37;;;4.60;99.90;;;4.03;nan;98185.25;4911397;29;20522;-75
2022/12/05 06:59:20;;;;;;;25.03;13.53;;;4.60;99.90;;;4.06;nan;98184.50;4910716;29;20459;-74
2022/12/05 07:01:47;;;;;;;29.17;14.73;;;4.60;99.90;;;4.13;nan;98195.84;4910154;29;20491;-74
2022/12/05 07:04:19;;;;;;;28.10;14.47;;;4.60;99.90;;;4.23;nan;98203.06;4911131;29;20459;-76
2022/12/05 07:06:47;;;;;;;28.93;14.20;;;4.70;99.90;;;4.23;nan;98206.50;4911068;29;20452;-75
2022/12/05 07:09:16;;;;;;;24.70;13.87;;;4.70;99.90;;;4.24;nan;98215.84;4910583;29;20473;-74
2022/12/05 07:11:47;;;;;;;30.03;14.10;;;4.70;99.90;;;4.25;nan;98215.06;4909792;29;20478;-76
2022/12/05 07:14:13;;;;;;;26.17;14.20;;;4.70;99.90;;;4.30;nan;98216.13;4909386;29;20807;-75
2022/12/05 07:16:41;;;;;;;23.60;13.20;;;4.70;99.90;;;4.36;nan;98207.03;4911065;29;20460;-75
2022/12/05 07:19:10;;;;;;;24.60;14.40;;;4.80;99.90;;;4.40;nan;98209.78;4911427;29;20459;-74
2022/12/05 07:21:37;;;;;;;23.70;12.77;;;4.80;99.90;;;4.44;nan;98219.28;4910602;29;20492;-74
2022/12/05 07:24:04;;;;;;;29.90;15.43;;;4.80;99.90;;;4.48;nan;98236.41;4909855;29;20463;-75
2022/12/05 07:26:31;;;;;;;27.93;14.80;;;4.90;99.90;;;4.51;nan;98249.28;4910893;29;20456;-74
2022/12/05 07:28:58;;;;;;;27.53;14.53;;;4.90;99.90;;;4.49;nan;98245.78;4910839;29;20667;-75
2022/12/05 07:31:28;;;;;;;25.80;14.10;;;4.90;99.90;;;4.48;nan;98246.59;4908926;29;20985;-75
2022/12/05 07:33:55;;;;;;;31.63;14.50;;;4.90;99.90;;;4.50;nan;98252.63;4909158;29;20952;-75
2022/12/05 07:36:23;;;;;;;26.07;13.37;;;4.90;99.90;;;4.52;nan;98256.13;4909890;29;20460;-75
2022/12/05 07:38:56;;;;;;;29.90;13.97;;;4.90;99.90;;;4.53;nan;98260.41;4909471;29;20966;-75
2022/12/05 07:41:26;;;;;;;26.53;14.30;;;4.90;99.90;;;4.52;nan;98261.22;4909394;29;21436;-75
2022/12/05 07:43:55;;;;;;;25.73;13.03;;;4.90;99.90;;;4.52;nan;98258.66;4908411;29;20471;-76
2022/12/05 07:46:24;;;;;;;25.07;13.17;;;4.90;99.90;;;4.56;nan;98272.38;4910005;29;20451;-74
2022/12/05 07:48:52;;;;;;;30.60;14.07;;;4.90;99.90;;;4.57;nan;98280.06;4909489;29;20671;-74
2022/12/05 07:51:20;;;;;;;25.13;13.73;;;5.00;99.90;;;4.55;nan;98275.72;4909271;29;20498;-75
2022/12/05 07:53:48;;;;;;;25.20;13.60;;;5.00;99.90;;;4.57;nan;98269.03;4908637;29;20443;-74
2022/12/05 07:56:18;;;;;;;25.43;14.30;;;5.00;99.90;;;4.57;nan;98269.03;4909422;29;20461;-75
2022/12/05 07:58:47;;;;;;;26.17;14.20;;;5.00;99.90;;;4.55;nan;98266.41;4908975;29;20459;-75
2022/12/05 08:01:18;;;;;;;27.13;15.13;;;5.00;99.90;;;4.56;nan;98270.69;4909618;29;20489;-75
2022/12/05 08:03:46;;;;;;;26.40;14.17;;;5.00;99.90;;;4.54;nan;98259.59;4908946;29;20951;-75
2022/12/05 08:06:16;;;;;;;27.77;14.53;;;5.00;99.90;;;4.50;nan;98254.31;4908826;29;20451;-75
2022/12/05 08:08:43;;;;;;;27.77;15.07;;;5.00;99.90;;;4.47;nan;98257.56;4908434;29;20828;-75
2022/12/05 08:11:14;;;;;;;27.77;14.30;;;5.00;99.90;;;4.45;nan;98253.22;4908514;29;20495;-76
2022/12/05 08:13:42;;;;;;;28.77;13.90;;;4.90;99.90;;;4.50;nan;98259.41;4907809;29;20975;-77
2022/12/05 08:16:13;;;;;;;26.53;14.60;;;5.00;99.90;;;4.50;nan;98262.81;4908348;29;20842;-76
2022/12/05 08:18:40;;;;;;;27.40;14.10;;;5.00;99.90;;;4.50;nan;98267.03;4907982;29;20464;-77
2022/12/05 08:21:10;;;;;;;28.73;14.90;;;5.00;99.90;;;4.52;nan;98273.06;4908563;29;20475;-75
2022/12/05 08:23:38;;;;;;;25.53;13.80;;;5.00;99.90;;;4.52;nan;98273.06;4908731;29;20519;-75
2022/12/05 08:26:09;;;;;;;27.77;13.83;;;5.00;99.90;;;4.56;nan;98275.78;4909105;29;20459;-75
2022/12/05 08:28:38;;;;;;;30.53;15.00;;;5.00;99.90;;;4.56;nan;98272.38;4909252;29;20913;-76
2022/12/05 08:31:07;;;;;;;27.87;15.70;;;5.00;99.90;;;4.51;nan;98276.41;4908965;29;20514;-76
2022/12/05 08:33:34;;;;;;;30.20;15.80;;;5.00;99.90;;;4.50;nan;98278.09;4908563;29;20469;-75
2022/12/05 08:36:03;;;;;;;30.13;15.60;;;5.00;99.90;;;4.52;nan;98268.84;4909116;29;20459;-75
2022/12/05 08:38:31;;;;;;;28.77;15.70;;;5.00;99.90;;;4.55;nan;98274.06;4908879;29;20466;-76
2022/12/05 08:41:01;;;;;;;27.37;15.07;;;5.00;99.90;;;4.56;nan;98278.34;4908837;29;20490;-76
2022/12/05 08:43:29;;;;;;;28.67;15.90;;;5.00;99.90;;;4.54;nan;98277.41;4908506;29;20511;-75
2022/12/05 08:45:57;;;;;;;29.47;14.27;;;5.00;99.90;;;4.55;nan;98284.25;4908985;29;20459;-76
2022/12/05 08:48:26;;;;;;;24.47;12.30;;;5.00;99.90;;;4.61;nan;98283.66;4908859;29;20459;-75
2022/12/05 08:50:53;;;;;;;30.73;14.70;;;5.10;99.90;;;4.63;nan;98293.09;4908698;29;20506;-75
2022/12/05 08:53:20;;;;;;;26.40;14.40;;;5.10;99.90;;;4.68;nan;98295.81;4908313;29;20486;-76
2022/12/05 08:55:47;;;;;;;25.03;13.30;;;5.10;99.90;;;4.65;nan;98294.81;4908957;29;20465;-75
2022/12/05 08:58:15;;;;;;;28.10;14.80;;;5.10;99.90;;;4.63;nan;98295.63;4908528;29;20962;-75
2022/12/05 09:00:42;;;;;;;33.37;15.00;;;5.20;99.90;;;4.70;nan;98301.88;4908605;29;20480;-76
2022/12/05 09:03:12;;;;;;;32.00;16.10;;;5.20;99.90;;;4.73;nan;98296.03;4908881;29;20467;-75
2022/12/05 09:05:39;;;;;;;31.63;17.07;;;5.20;99.90;;;4.74;nan;98297.78;4909460;29;20486;-75
2022/12/05 09:08:06;;;;;;;30.80;16.00;;;5.20;99.90;;;4.69;nan;98309.41;4908905;29;20967;-76
2022/12/05 09:10:33;;;;;;;29.47;15.20;;;5.20;99.90;;;4.67;nan;98309.34;4908981;29;21022;-75
2022/12/05 09:13:00;;;;;;;28.13;15.27;;;5.20;99.90;;;4.61;nan;98317.63;4908346;29;20463;-76
2022/12/05 09:15:27;;;;;;;29.70;16.67;;;5.10;99.90;;;4.52;nan;98312.13;4909089;29;20463;-75
2022/12/05 09:17:54;;;;;;;31.97;16.23;;;5.10;99.90;;;4.67;nan;98317.00;4909256;29;20466;-75
2022/12/05 09:20:22;;;;;;;31.27;17.07;;;5.10;99.90;;;4.78;nan;98322.56;4908909;29;20813;-75
2022/12/05 09:22:51;;;;;;;34.27;17.37;;;5.20;99.90;;;4.82;nan;98325.31;4908414;29;20456;-75
2022/12/05 09:25:18;;;;;;;36.50;19.50;;;5.30;99.90;;;4.91;nan;98323.19;4908868;29;20461;-75
2022/12/05 09:27:45;;;;;;;33.63;14.90;;;5.30;99.90;;;4.91;nan;98327.41;4907453;29;20917;-75
2022/12/05 09:30:14;;;;;;;27.87;15.37;;;5.30;99.90;;;4.92;nan;98331.69;4907998;29;20522;-76
2022/12/05 09:32:41;;;;;;;29.80;17.57;;;5.40;99.90;;;4.94;nan;98334.28;4907460;29;20474;-75
2022/12/05 09:35:09;;;;;;;25.47;15.60;;;5.40;99.90;;;4.93;nan;98337.66;4908105;29;20459;-75
2022/12/05 09:37:37;;;;;;;33.40;17.97;;;5.40;99.90;;;4.97;nan;98344.59;4909669;29;20470;-76
2022/12/05 09:40:06;;;;;;;35.00;18.93;;;5.40;99.90;;;4.90;nan;98336.72;4912092;29;20451;-76
2022/12/05 09:42:45;;;;;;;25.37;14.80;;;5.40;99.90;;;4.92;nan;98339.31;4911573;29;20478;-76
2022/12/05 09:45:24;;;;;;;27.17;13.87;;;5.40;99.90;;;4.93;nan;98335.97;4912675;29;20939;-76
2022/12/05 09:48:00;;;;;;;23.80;14.60;;;5.40;99.90;;;5.00;nan;98343.06;4912508;29;20458;-76
2022/12/05 09:50:30;;;;;;;24.73;13.80;;;5.50;99.90;;;5.05;nan;98343.28;4911992;29;20482;-76
2022/12/05 09:53:11;;;;;;;21.40;13.17;;;5.50;99.90;;;5.09;nan;98342.56;4911873;29;20460;-79
2022/12/05 09:55:53;;;;;;;20.40;13.37;;;5.50;99.90;;;5.00;nan;98335.41;4912578;29;20473;-77
2022/12/05 09:58:39;;;;;;;26.50;13.60;;;5.50;99.90;;;5.09;nan;98347.69;4912788;29;20470;-76
2022/12/05 10:01:25;;;;;;;23.47;13.10;;;5.50;99.90;;;5.15;nan;98343.72;4912374;29;20493;-76
2022/12/05 10:04:21;;;;;;;24.17;12.77;;;5.60;99.90;;;5.17;nan;98348.88;4911257;29;20585;-77
2022/12/05 10:07:01;;;;;;;27.67;14.23;;;5.60;99.90;;;5.16;nan;98339.50;4912155;29;20459;-77
2022/12/05 10:09:49;;;;;;;22.80;14.00;;;5.60;99.90;;;5.14;nan;98341.97;4912573;29;20443;-79
2022/12/05 10:12:39;;;;;;;25.20;13.67;;;5.60;99.90;;;5.14;nan;98341.13;4911194;29;20475;-78
2022/12/05 10:15:17;;;;;;;28.20;16.85;;;5.60;99.90;;;5.25;nan;98347.53;4911125;29;20453;-76
2022/12/05 10:17:52;;;;;;;24.30;15.23;;;5.80;99.90;;;5.28;nan;98344.22;4911761;29;20701;-76
2022/12/05 10:20:28;;;;;;;25.70;14.70;;;5.90;99.90;;;5.32;nan;98349.53;4912077;29;20538;-76
2022/12/05 10:23:03;;;;;;;27.63;13.77;;;5.90;99.90;;;5.27;nan;98348.47;4911108;29;20463;-76
2022/12/05 10:25:35;;;;;;;28.40;15.37;;;5.80;99.90;;;5.28;nan;98347.66;4911685;29;20813;-76
2022/12/05 10:28:14;;;;;;;27.70;14.13;;;5.80;99.90;;;5.33;nan;98343.63;4911445;29;20873;-76
2022/12/05 10:30:44;;;;;;;23.83;14.30;;;5.80;99.90;;;5.34;nan;98335.19;4911189;29;20499;-76
2022/12/05 10:33:20;;;;;;;25.80;15.20;;;5.80;99.90;;;5.38;nan;98339.59;4911092;29;20478;-77
2022/12/05 10:35:52;;;;;;;26.57;14.33;;;5.80;99.90;;;5.37;nan;98334.44;4911799;29;20451;-78
2022/12/05 10:38:27;;;;;;;34.10;15.60;;;5.80;99.90;;;5.36;nan;98332.69;4911329;29;20495;-76
2022/12/05 10:41:03;;;;;;;27.93;14.40;;;5.80;99.90;;;5.41;nan;98331.19;4911637;29;20507;-76
2022/12/05 10:43:34;;;;;;;27.37;14.43;;;5.90;99.90;;;5.45;nan;98336.50;4910144;29;20923;-76
2022/12/05 10:46:04;;;;;;;22.80;13.20;;;5.90;99.90;;;5.48;nan;98334.06;4911452;29;20470;-77
2022/12/05 10:48:37;;;;;;;28.80;14.17;;;5.90;99.90;;;5.44;nan;98337.31;4911254;29;20550;-77
2022/12/05 10:51:06;;;;;;;25.00;14.07;;;5.90;99.90;;;5.39;nan;98337.91;4910863;29;21011;-79
2022/12/05 10:53:41;;;;;;;28.13;15.50;;;5.90;99.90;;;5.36;nan;98327.59;4910513;29;20831;-77
2022/12/05 10:56:44;;;;;;;28.57;16.10;;;5.80;99.90;;;5.45;nan;98333.94;4911186;29;20455;-76
2022/12/05 10:59:15;;;;;;;28.00;15.00;;;5.90;99.90;;;5.44;nan;98332.22;4910733;29;20951;-78
2022/12/05 11:01:48;;;;;;;24.20;13.90;;;5.90;99.90;;;5.43;nan;98327.06;4910309;29;20491;-77
2022/12/05 11:04:30;;;;;;;24.10;13.80;;;5.90;99.90;;;5.40;nan;98334.53;4911156;29;20459;-76
2022/12/05 11:07:00;;;;;;;23.70;13.70;;;5.90;99.90;;;5.43;nan;98325.38;4911528;29;20443;-76
2022/12/05 11:09:30;;;;;;;24.77;13.40;;;5.90;99.90;;;5.45;nan;98335.63;4910548;29;20451;-77
2022/12/05 11:12:20;;;;;;;22.80;13.60;;;5.90;99.90;;;5.55;nan;98331.78;4909885;29;20499;-77
2022/12/05 11:14:57;;;;;;;21.90;13.37;;;6.00;99.90;;;5.54;nan;98323.25;4910321;29;20439;-76
2022/12/05 11:17:30;;;;;;;30.93;16.20;;;6.00;99.90;;;5.55;nan;98321.56;4911325;29;20443;-77
2022/12/05 11:19:57;;;;;;;27.40;14.20;;;6.00;99.90;;;5.56;nan;98323.31;4910609;29;20988;-77
2022/12/05 11:22:33;;;;;;;27.77;14.33;;;6.00;99.90;;;5.55;nan;98327.53;4909338;29;21037;-76
2022/12/05 11:25:00;;;;;;;24.47;13.53;;;6.00;99.90;;;5.55;nan;98321.56;4910949;29;20454;-76
2022/12/05 11:27:32;;;;;;;26.00;14.40;;;6.00;99.90;;;5.59;nan;98331.06;4910692;29;20799;-77
2022/12/05 11:30:04;;;;;;;21.33;12.87;;;6.00;99.90;;;5.61;nan;98326.91;4910766;29;20810;-76
2022/12/05 11:32:33;;;;;;;25.37;14.63;;;6.10;99.90;;;5.59;nan;98331.06;4909669;29;20509;-76
2022/12/05 11:35:18;;;;;;;29.07;14.83;;;6.10;99.90;;;5.64;nan;98329.59;4910548;29;20467;-78
2022/12/05 11:37:51;;;;;;;23.33;14.10;;;6.10;99.90;;;5.73;nan;98323.19;4910473;29;20482;-77
2022/12/05 11:40:30;;;;;;;37.47;21.00;;;6.10;99.90;;;5.76;nan;98325.84;4910045;29;20471;-77
2022/12/05 11:43:31;;;;;;;25.73;15.23;;;6.20;99.90;;;5.77;nan;98324.16;4909431;29;20875;-77
2022/12/05 11:46:15;;;;;;;32.77;17.83;;;6.20;99.90;;;5.70;nan;98324.72;4908351;29;20955;-77
2022/12/05 11:49:03;;;;;;;28.53;14.83;;;6.20;99.90;;;5.69;nan;98321.31;4910004;29;20546;-77
2022/12/05 11:51:40;;;;;;;27.17;14.57;;;6.20;99.90;;;5.61;nan;98320.13;4909704;29;20509;-77
2022/12/05 11:54:49;;;;;;;29.83;15.37;;;6.10;99.90;;;5.56;nan;98326.72;4910027;29;20517;-77
2022/12/05 11:57:30;;;;;;;24.20;13.53;;;6.10;99.90;;;5.61;nan;98332.88;4909905;29;21088;-77
2022/12/05 12:00:24;;;;;;;23.73;14.07;;;6.10;99.90;;;5.63;nan;98332.97;4909765;29;20439;-77
2022/12/05 12:03:32;;;;;;;28.20;13.93;;;6.10;99.90;;;5.70;nan;98325.59;4909440;29;20448;-76
2022/12/05 12:06:27;;;;;;;24.87;14.50;;;6.10;99.90;;;5.73;nan;98327.44;4910020;29;20834;-77
2022/12/05 12:09:25;;;;;;;26.17;13.53;;;6.20;99.90;;;5.66;nan;98322.88;4909844;29;20447;-76
2022/12/05 12:12:04;;;;;;;27.53;14.07;;;6.10;99.90;;;5.71;nan;98323.91;4909177;29;20873;-77
2022/12/05 12:14:43;;;;;;;22.17;13.43;;;6.20;99.90;;;5.70;nan;98312.84;4909971;29;20447;-78
2022/12/05 12:17:22;;;;;;;23.50;13.20;;;6.20;99.90;;;5.66;nan;98310.13;4909390;29;20449;-78
2022/12/05 12:20:13;;;;;;;24.13;13.60;;;6.20;99.90;;;5.67;nan;98307.63;4909507;29;20455;-77
2022/12/05 12:23:06;;;;;;;23.37;13.53;;;6.20;99.90;;;5.71;nan;98304.38;4909105;29;20440;-78
2022/12/05 12:25:50;;;;;;;26.70;13.50;;;6.20;99.90;;;5.72;nan;98306.16;4909323;29;20467;-78
2022/12/05 12:28:37;;;;;;;24.67;14.17;;;6.20;99.90;;;5.81;nan;98305.63;4910007;29;20465;-78
2022/12/05 12:31:28;;;;;;;26.83;13.53;;;6.30;99.90;;;5.79;nan;98314.91;4909357;29;20503;-78
2022/12/05 12:34:11;;;;;;;24.57;13.53;;;6.30;99.90;;;5.76;nan;98307.13;4909100;29;20466;-78
2022/12/05 12:36:46;;;;;;;29.87;13.37;;;6.30;99.90;;;5.78;nan;98315.72;4908111;29;20455;-78
2022/12/05 12:39:35;;;;;;;21.80;13.13;;;6.30;99.90;;;5.85;nan;98316.84;4909691;29;20462;-78
2022/12/05 12:42:20;;;;;;;26.03;13.30;;;6.30;99.90;;;5.78;nan;98319.13;4908626;29;20475;-77
2022/12/05 12:45:22;;;;;;;19.83;12.40;;;6.30;99.90;;;5.83;nan;98318.47;4909970;29;20444;-78
2022/12/05 12:48:12;;;;;;;23.27;13.47;;;6.30;99.90;;;5.90;nan;98317.88;4908338;29;20486;-78
2022/12/05 12:50:45;;;;;;;23.03;12.70;;;6.30;99.90;;;5.90;nan;98323.88;4909273;29;20479;-78
2022/12/05 12:53:44;;;;;;;25.70;13.80;;;6.40;99.90;;;5.91;nan;98320.50;4908768;29;20459;-78
2022/12/05 12:56:35;;;;;;;21.73;13.50;;;6.40;99.90;;;5.98;nan;98319.06;4909834;29;20467;-78
2022/12/05 12:59:20;;;;;;;20.10;13.37;;;6.40;99.90;;;5.97;nan;98318.22;4910006;29;20447;-77
2022/12/05 13:01:56;;;;;;;23.43;14.07;;;6.40;99.90;;;5.94;nan;98314.69;4908546;29;20479;-77
2022/12/05 13:04:32;;;;;;;24.87;13.53;;;6.40;99.90;;;5.90;nan;98313.66;4909251;29;20831;-77
2022/12/05 13:07:06;;;;;;;21.30;12.80;;;6.40;99.90;;;6.00;nan;98312.34;4909564;29;20461;-77
2022/12/05 13:09:41;;;;;;;21.53;12.70;;;6.40;99.90;;;6.03;nan;98310.81;4909612;29;20443;-77
2022/12/05 13:12:15;;;;;;;22.43;13.67;;;6.50;99.90;;;6.10;nan;98306.78;4907668;29;21033;-77
2022/12/05 13:14:52;;;;;;;23.50;13.27;;;6.50;99.90;;;6.14;nan;98306.09;4912634;29;20459;-77
2022/12/05 13:17:22;;;;;;;19.80;12.53;;;6.60;99.90;;;6.15;nan;98307.84;4912061;29;20454;-77
2022/12/05 13:19:51;;;;;;;18.23;11.20;;;6.60;99.90;;;6.13;nan;98308.56;4911906;29;20936;-78
2022/12/05 13:22:24;;;;;;;22.03;11.90;;;6.60;99.90;;;6.17;nan;98298.56;4910733;29;20565;-78
2022/12/05 13:24:52;;;;;;;21.57;13.00;;;6.60;99.90;;;6.15;nan;98292.53;4910759;29;21361;-77
2022/12/05 13:27:23;;;;;;;19.77;12.63;;;6.60;99.90;;;6.23;nan;98297.91;4911914;29;20521;-77
2022/12/05 13:29:56;;;;;;;26.40;14.40;;;6.70;99.90;;;6.18;nan;98297.75;4911992;29;20455;-77
2022/12/05 13:32:33;;;;;;;23.10;12.27;;;6.70;99.90;;;6.12;nan;98301.72;4910792;29;20521;-77
2022/12/05 13:35:09;;;;;;;22.67;14.10;;;6.60;99.90;;;6.11;nan;98300.88;4911231;29;20578;-77
2022/12/05 13:43:25;;;;;;;18.30;11.63;;;6.60;99.90;;;6.16;nan;98304.47;4910896;29;20828;-78
2022/12/05 13:46:05;;;;;;;19.50;12.30;;;6.60;99.90;;;6.15;nan;98306.97;4912126;29;20443;-78
2022/12/05 13:48:37;;;;;;;20.03;12.60;;;6.60;99.90;;;6.17;nan;98308.75;4911384;29;20439;-78
2022/12/05 13:51:10;;;;;;;23.40;14.03;;;6.60;99.90;;;6.21;nan;98315.72;4911255;29;20879;-78
2022/12/05 13:53:43;;;;;;;26.80;13.87;;;6.60;99.90;;;6.31;nan;98316.94;4910467;29;20467;-78
2022/12/05 13:56:27;;;;;;;22.20;12.43;;;6.70;99.90;;;6.33;nan;98316.19;4909540;29;20828;-77
2022/12/05 13:58:56;;;;;;;21.13;11.70;;;6.70;99.90;;;6.34;nan;98324.72;4912597;29;20538;-77
2022/12/05 14:01:50;;;;;;;25.37;13.30;;;6.70;99.90;;;6.31;nan;98322.03;4911295;29;20542;-77
2022/12/05 14:04:46;;;;;;;21.13;11.73;;;6.80;99.90;;;6.19;nan;98325.00;4912545;29;20459;-78
2022/12/05 14:07:40;;;;;;;19.83;11.77;;;6.70;99.90;;;6.25;nan;98326.94;4911614;29;20952;-79
2022/12/05 14:10:12;;;;;;;19.03;12.30;;;6.70;99.90;;;6.27;nan;98323.63;4912504;29;20514;-78
2022/12/05 14:12:55;;;;;;;19.30;11.10;;;6.70;99.90;;;6.31;nan;98322.91;4912253;29;20486;-78
2022/12/05 14:15:33;;;;;;;21.13;11.90;;;6.70;99.90;;;6.28;nan;98337.25;4912194;29;21301;-78
2022/12/05 14:18:08;;;;;;;19.00;12.27;;;6.70;99.90;;;6.30;nan;98338.16;4911207;29;20463;-78
2022/12/05 14:21:06;;;;;;;22.40;11.83;;;6.70;99.90;;;6.33;nan;98338.28;4910050;29;20577;-78
2022/12/05 14:24:01;;;;;;;18.20;12.13;;;6.70;99.90;;;6.30;nan;98336.50;4910760;29;20455;-78
2022/12/05 14:27:07;;;;;;;19.47;11.60;;;6.70;99.90;;;6.23;nan;98333.63;4911607;29;20883;-78
2022/12/05 14:29:51;;;;;;;20.50;12.07;;;6.70;99.90;;;6.30;nan;98333.94;4910750;29;20844;-78
2022/12/05 14:32:25;;;;;;;22.57;12.87;;;6.70;99.90;;;6.38;nan;98338.47;4910756;29;20513;-78
2022/12/05 14:34:58;;;;;;;17.03;12.43;;;6.70;99.90;;;6.30;nan;98343.28;4911047;29;20448;-79
2022/12/05 14:37:30;;;;;;;26.50;12.57;;;6.70;99.90;;;6.34;nan;98348.56;4910985;29;20463;-78
2022/12/05 14:39:59;;;;;;;19.43;12.00;;;6.70;99.90;;;6.39;nan;98343.63;4910841;29;20455;-78
2022/12/05 14:42:37;;;;;;;20.77;13.00;;;6.80;99.90;;;6.34;nan;98346.03;4910190;29;20483;-78
2022/12/05 14:45:29;;;;;;;18.90;11.63;;;6.80;99.90;;;6.38;nan;98348.69;4910933;29;20458;-78
2022/12/05 14:48:00;;;;;;;21.70;12.77;;;6.80;99.90;;;6.30;nan;98343.28;4910654;29;20976;-79
2022/12/05 14:50:43;;;;;;;21.37;12.33;;;6.80;99.90;;;6.36;nan;98335.88;4910476;29;20460;-79
2022/12/05 14:53:35;;;;;;;18.37;11.87;;;6.80;99.90;;;6.32;nan;98339.09;4910280;29;20487;-78
2022/12/05 14:56:15;;;;;;;19.63;13.60;;;6.80;99.90;;;6.35;nan;98352.00;4910758;29;20450;-79
2022/12/05 14:58:51;;;;;;;21.90;12.53;;;6.80;99.90;;;6.43;nan;98344.59;4910679;29;20463;-78
2022/12/05 15:01:23;;;;;;;22.80;12.03;;;6.80;99.90;;;6.43;nan;98342.06;4910834;29;20865;-79
2022/12/05 15:04:17;;;;;;;19.53;12.60;;;6.80;99.90;;;6.39;nan;98346.19;4910403;29;20974;-78
2022/12/05 15:06:52;;;;;;;17.60;10.50;;;6.80;99.90;;;6.44;nan;98341.28;4910728;29;20448;-78
2022/12/05 15:09:44;;;;;;;21.87;14.50;;;6.80;99.90;;;6.47;nan;98346.47;4910649;29;20759;-77
2022/12/05 15:12:19;;;;;;;20.87;12.67;;;6.80;99.90;;;6.45;nan;98343.88;4909850;29;20991;-76
2022/12/05 15:15:02;;;;;;;19.80;13.57;;;6.80;99.90;;;6.38;nan;98341.03;4910488;29;20463;-77
2022/12/05 15:17:42;;;;;;;24.30;12.77;;;6.80;99.90;;;6.40;nan;98339.41;4911891;29;20463;-79
2022/12/05 15:20:19;;;;;;;21.30;12.73;;;6.80;99.90;;;6.41;nan;98342.00;4912136;29;21033;-78
2022/12/05 15:22:47;;;;;;;23.30;13.30;;;6.80;99.90;;;6.43;nan;98348.03;4911721;29;20847;-77
2022/12/05 15:25:27;;;;;;;21.03;13.10;;;6.80;99.90;;;6.37;nan;98350.38;4912192;29;20459;-78
2022/12/05 15:27:57;;;;;;;19.43;12.23;;;6.80;99.90;;;6.34;nan;98348.56;4912072;29;20444;-78
2022/12/05 15:30:28;;;;;;;19.97;12.43;;;6.80;99.90;;;6.35;nan;98344.34;4911506;29;20455;-78
2022/12/05 15:32:55;;;;;;;20.43;13.53;;;6.80;99.90;;;6.37;nan;98342.72;4910155;29;20503;-76
2022/12/05 15:35:27;;;;;;;23.60;12.87;;;6.80;99.90;;;6.37;nan;98339.28;4909884;29;20917;-77
2022/12/05 15:38:02;;;;;;;20.13;12.50;;;6.80;99.90;;;6.34;nan;98350.25;4910903;29;20447;-76
2022/12/05 15:40:36;;;;;;;20.20;12.00;;;6.80;99.90;;;6.33;nan;98357.06;4910605;29;20823;-79
2022/12/05 15:43:27;;;;;;;19.23;12.70;;;6.80;99.90;;;6.32;nan;98362.94;4910132;29;20462;-76
2022/12/05 15:46:22;;;;;;;19.30;12.33;;;6.70;99.90;;;6.34;nan;98357.91;4911700;29;20435;-82
2022/12/05 15:48:51;;;;;;;20.50;12.20;;;6.70;99.90;;;6.31;nan;98362.88;4911444;29;20484;-75
2022/12/05 15:51:23;;;;;;;22.17;13.57;;;6.70;99.90;;;6.30;nan;98366.25;4911725;29;21038;-79
2022/12/05 15:53:59;;;;;;;18.27;11.37;;;6.70;99.90;;;6.26;nan;98366.97;4912875;29;20452;-78
2022/12/05 15:56:32;;;;;;;21.30;12.50;;;6.70;99.90;;;6.25;nan;98381.41;4912017;29;20469;-78
2022/12/05 15:59:12;;;;;;;18.20;12.00;;;6.70;99.90;;;6.24;nan;98376.25;4909738;29;20944;-76
2022/12/05 16:01:50;;;;;;;22.93;12.30;;;6.70;99.90;;;6.23;nan;98372.81;4909208;29;20490;-74
2022/12/05 16:04:28;;;;;;;23.73;13.93;;;6.70;99.90;;;6.23;nan;98377.03;4909896;29;20466;-74
2022/12/05 16:06:56;;;;;;;20.23;12.70;;;6.70;99.90;;;6.20;nan;98374.38;4909728;29;20446;-74
2022/12/05 16:09:31;;;;;;;18.17;11.80;;;6.60;99.90;;;6.21;nan;98374.41;4909519;29;20465;-73
2022/12/05 16:12:02;;;;;;;21.03;13.10;;;6.60;99.90;;;6.19;nan;98372.63;4908990;29;20572;-73